createdAt,value
2023-05-14T00:10:01.228Z,7.57
2023-05-14T00:20:13.436Z,7.18
2023-05-14T00:30:19.965Z,6.95
2023-05-14T00:40:29.691Z,6.90
2023-05-14T00:50:36.182Z,6.62
2023-05-14T01:00:43.524Z,6.38
2023-05-14T01:10:56.508Z,6.22
2023-05-14T01:21:03.449Z,6.60
2023-05-14T01:31:14.191Z,6.40
2023-05-14T01:41:21.003Z,6.33
2023-05-14T01:51:27.522Z,5.99
2023-05-14T02:01:35.167Z,6.33
2023-05-14T02:11:42.184Z,6.13
2023-05-14T02:21:49.774Z,6.11
2023-05-14T02:31:56.344Z,6.16
2023-05-14T02:42:02.854Z,6.22
2023-05-14T02:52:09.336Z,6.16
2023-05-14T03:02:15.910Z,6.16
2023-05-14T03:12:23.218Z,6.15
2023-05-14T03:22:29.724Z,5.87
2023-05-14T03:32:36.246Z,6.16
2023-05-14T03:42:42.714Z,6.39
2023-05-14T03:52:49.711Z,6.62
2023-05-14T04:02:56.416Z,6.93
2023-05-14T04:13:02.979Z,7.27
2023-05-14T04:23:09.477Z,7.52
2023-05-14T04:33:15.963Z,7.75
2023-05-14T04:43:22.551Z,8.63
2023-05-14T04:53:29.123Z,9.34
2023-05-14T05:03:35.825Z,9.96
2023-05-14T05:13:42.782Z,10.48
2023-05-14T05:23:49.271Z,10.96
2023-05-14T05:33:55.719Z,11.82
2023-05-14T05:44:02.224Z,11.70
2023-05-14T05:54:08.768Z,11.92
2023-05-14T06:04:15.289Z,13.23
2023-05-14T06:14:21.853Z,13.33
2023-05-14T06:24:28.321Z,14.40
2023-05-14T06:34:34.826Z,14.20
2023-05-14T06:44:41.402Z,14.50
2023-05-14T06:54:47.897Z,14.96
2023-05-14T07:04:55.368Z,15.56
2023-05-14T07:15:01.855Z,17.50
2023-05-14T07:25:09.163Z,16.60
2023-05-14T07:35:15.635Z,17.67
2023-05-14T07:45:22.150Z,18.23
2023-05-14T07:55:28.630Z,17.67
2023-05-14T08:05:35.204Z,17.53
2023-05-14T08:15:42.002Z,19.74
2023-05-14T08:25:48.510Z,19.79
2023-05-14T08:35:55.453Z,20.48
2023-05-14T08:46:02.770Z,19.90
2023-05-14T08:56:10.466Z,23.00
2023-05-14T09:06:17.511Z,24.24
2023-05-14T09:16:24.561Z,22.71
2023-05-14T09:26:33.437Z,23.87
2023-05-14T09:36:40.042Z,20.90
2023-05-14T09:46:50.260Z,22.72
2023-05-14T09:56:56.780Z,23.40
2023-05-14T10:07:03.724Z,22.06
2023-05-14T10:17:19.532Z,23.23
2023-05-14T10:27:26.364Z,22.83
2023-05-14T10:37:32.937Z,21.29
2023-05-14T10:47:41.036Z,20.51
2023-05-14T10:57:48.257Z,20.77
2023-05-14T11:07:58.450Z,20.77
2023-05-14T11:18:05.110Z,20.45
2023-05-14T11:28:11.863Z,20.65
2023-05-14T11:38:19.500Z,20.48
2023-05-14T11:48:25.986Z,20.49
2023-05-14T11:58:35.716Z,20.73
2023-05-14T12:08:42.156Z,21.71
2023-05-14T12:18:48.741Z,21.09
2023-05-14T12:29:01.227Z,21.46
2023-05-14T12:39:07.763Z,20.98
2023-05-14T12:49:14.373Z,21.34
2023-05-14T12:59:20.897Z,21.08
2023-05-14T13:09:29.144Z,21.52
2023-05-14T13:19:35.641Z,21.43
2023-05-14T13:29:42.822Z,21.14
2023-05-14T13:39:50.714Z,20.86
2023-05-14T13:49:57.923Z,20.50
2023-05-14T14:00:04.606Z,21.14
2023-05-14T14:10:11.524Z,21.22
2023-05-14T14:20:18.229Z,20.08
2023-05-14T14:30:24.753Z,20.48
2023-05-14T14:40:31.369Z,20.70
2023-05-14T14:50:37.836Z,20.77
2023-05-14T15:00:45.255Z,20.03
2023-05-14T15:10:51.723Z,20.15
2023-05-14T15:20:58.221Z,19.78
2023-05-14T15:31:04.848Z,19.58
2023-05-14T15:41:11.420Z,19.29
2023-05-14T15:51:17.940Z,19.28
2023-05-14T16:01:43.029Z,19.04
2023-05-14T16:11:49.638Z,19.09
2023-05-14T16:21:56.192Z,18.98
2023-05-14T16:32:03.319Z,18.77
2023-05-14T16:42:10.059Z,18.60
2023-05-14T16:52:16.743Z,18.58
2023-05-14T17:02:23.222Z,18.38
2023-05-14T17:12:29.860Z,18.26
2023-05-14T17:22:36.539Z,18.19
2023-05-14T17:32:43.111Z,18.01
2023-05-14T17:42:49.728Z,17.93
2023-05-14T17:53:04.485Z,17.58
2023-05-14T18:03:12.014Z,17.58
2023-05-14T18:13:18.691Z,15.26
2023-05-14T18:23:25.269Z,15.19
2023-05-14T18:33:32.693Z,15.12
2023-05-14T18:43:39.197Z,14.72
2023-05-14T18:53:45.738Z,15.02
2023-05-14T19:03:54.164Z,15.27
2023-05-14T19:14:00.994Z,15.99
2023-05-14T19:24:07.666Z,15.86
2023-05-14T19:34:14.359Z,14.91
2023-05-14T19:44:20.978Z,14.95
2023-05-14T19:54:27.510Z,14.54
2023-05-14T20:04:34.676Z,13.94
2023-05-14T20:14:42.427Z,14.47
2023-05-14T20:24:48.962Z,13.90
2023-05-14T20:34:55.790Z,14.00
2023-05-14T20:45:02.299Z,13.97
2023-05-14T20:55:09.235Z,13.61
2023-05-14T21:05:15.888Z,13.49
2023-05-14T21:15:22.953Z,13.52
2023-05-14T21:25:29.997Z,13.29
2023-05-14T21:35:36.580Z,13.39
2023-05-14T21:45:44.396Z,13.98
2023-05-14T21:55:51.379Z,14.22
2023-05-14T22:05:58.219Z,13.87
2023-05-14T22:16:12.089Z,13.66
2023-05-14T22:26:20.151Z,13.57
2023-05-14T22:36:26.657Z,13.73
2023-05-14T22:46:33.207Z,13.61
2023-05-14T22:56:40.077Z,13.39
2023-05-14T23:06:47.096Z,13.27
2023-05-14T23:16:53.602Z,13.27
2023-05-14T23:27:00.142Z,13.17
2023-05-14T23:37:06.875Z,13.22
2023-05-14T23:47:13.778Z,12.97
2023-05-14T23:57:20.279Z,12.77
